sensor_id;sensor_type;location;lat;lon;timestamp;P1;durP1;ratioP1;P2;durP2;ratioP2
77864;SDS011;67061;48.524;9.040;2023-02-01T00:02:20;5.45;;;3.33;;
77864;SDS011;67061;48.524;9.040;2023-02-01T00:04:47;4.97;;;3.40;;
77864;SDS011;67061;48.524;9.040;2023-02-01T00:07:14;5.68;;;3.60;;
77864;SDS011;67061;48.524;9.040;2023-02-01T00:09:41;5.75;;;3.40;;
77864;SDS011;67061;48.524;9.040;2023-02-01T00:12:08;6.65;;;3.47;;
77864;SDS011;67061;48.524;9.040;2023-02-01T00:14:35;5.78;;;3.30;;
77864;SDS011;67061;48.524;9.040;2023-02-01T00:17:03;6.25;;;4.32;;
77864;SDS011;67061;48.524;9.040;2023-02-01T00:19:32;6.75;;;4.53;;
77864;SDS011;67061;48.524;9.040;2023-02-01T00:21:59;5.35;;;3.75;;
77864;SDS011;67061;48.524;9.040;2023-02-01T00:24:26;6.22;;;3.40;;
77864;SDS011;67061;48.524;9.040;2023-02-01T00:26:54;5.40;;;3.17;;
77864;SDS011;67061;48.524;9.040;2023-02-01T00:29:20;5.90;;;3.05;;
77864;SDS011;67061;48.524;9.040;2023-02-01T00:31:51;4.90;;;2.78;;
77864;SDS011;67061;48.524;9.040;2023-02-01T00:34:22;6.53;;;4.15;;
77864;SDS011;67061;48.524;9.040;2023-02-01T00:36:51;5.57;;;3.13;;
77864;SDS011;67061;48.524;9.040;2023-02-01T00:39:17;5.90;;;3.40;;
77864;SDS011;67061;48.524;9.040;2023-02-01T00:41:44;3.80;;;2.85;;
77864;SDS011;67061;48.524;9.040;2023-02-01T00:44:11;4.55;;;2.83;;
77864;SDS011;67061;48.524;9.040;2023-02-01T00:46:38;4.50;;;2.53;;
77864;SDS011;67061;48.524;9.040;2023-02-01T00:49:05;5.00;;;2.75;;
77864;SDS011;67061;48.524;9.040;2023-02-01T00:51:34;5.20;;;3.13;;
77864;SDS011;67061;48.524;9.040;2023-02-01T00:54:02;3.70;;;1.95;;
77864;SDS011;67061;48.524;9.040;2023-02-01T00:56:29;4.43;;;2.90;;
77864;SDS011;67061;48.524;9.040;2023-02-01T00:58:56;5.18;;;2.60;;
77864;SDS011;67061;48.524;9.040;2023-02-01T01:01:24;4.00;;;3.05;;
77864;SDS011;67061;48.524;9.040;2023-02-01T01:03:54;4.18;;;2.67;;
77864;SDS011;67061;48.524;9.040;2023-02-01T01:06:22;4.05;;;2.88;;
77864;SDS011;67061;48.524;9.040;2023-02-01T01:08:51;4.90;;;3.83;;
77864;SDS011;67061;48.524;9.040;2023-02-01T01:11:21;5.28;;;2.45;;
77864;SDS011;67061;48.524;9.040;2023-02-01T01:13:50;3.00;;;2.00;;
77864;SDS011;67061;48.524;9.040;2023-02-01T01:16:18;3.20;;;2.38;;
77864;SDS011;67061;48.524;9.040;2023-02-01T01:18:47;3.45;;;2.17;;
77864;SDS011;67061;48.524;9.040;2023-02-01T01:21:14;3.03;;;2.17;;
77864;SDS011;67061;48.524;9.040;2023-02-01T01:23:42;3.17;;;1.80;;
77864;SDS011;67061;48.524;9.040;2023-02-01T01:26:10;2.90;;;2.10;;
77864;SDS011;67061;48.524;9.040;2023-02-01T01:28:41;3.25;;;1.83;;
77864;SDS011;67061;48.524;9.040;2023-02-01T01:31:08;3.35;;;2.47;;
77864;SDS011;67061;48.524;9.040;2023-02-01T01:33:36;3.17;;;2.17;;
77864;SDS011;67061;48.524;9.040;2023-02-01T01:36:04;2.38;;;1.77;;
77864;SDS011;67061;48.524;9.040;2023-02-01T01:38:32;3.55;;;2.00;;
77864;SDS011;67061;48.524;9.040;2023-02-01T01:40:58;2.80;;;1.80;;
77864;SDS011;67061;48.524;9.040;2023-02-01T01:46:17;3.03;;;1.55;;
77864;SDS011;67061;48.524;9.040;2023-02-01T01:48:45;3.25;;;1.90;;
77864;SDS011;67061;48.524;9.040;2023-02-01T01:51:15;2.65;;;2.45;;
77864;SDS011;67061;48.524;9.040;2023-02-01T01:53:48;3.92;;;2.00;;
77864;SDS011;67061;48.524;9.040;2023-02-01T01:56:20;3.70;;;1.77;;
77864;SDS011;67061;48.524;9.040;2023-02-01T01:58:49;2.47;;;1.30;;
77864;SDS011;67061;48.524;9.040;2023-02-01T02:01:16;2.60;;;1.45;;
77864;SDS011;67061;48.524;9.040;2023-02-01T02:03:43;2.40;;;1.65;;
77864;SDS011;67061;48.524;9.040;2023-02-01T02:08:45;2.53;;;1.55;;
77864;SDS011;67061;48.524;9.040;2023-02-01T02:11:12;2.78;;;1.70;;
77864;SDS011;67061;48.524;9.040;2023-02-01T02:13:45;3.28;;;1.60;;
77864;SDS011;67061;48.524;9.040;2023-02-01T02:16:22;3.30;;;2.03;;
77864;SDS011;67061;48.524;9.040;2023-02-01T02:19:12;2.95;;;2.30;;
77864;SDS011;67061;48.524;9.040;2023-02-01T02:22:10;3.22;;;1.83;;
77864;SDS011;67061;48.524;9.040;2023-02-01T02:25:13;3.92;;;1.98;;
77864;SDS011;67061;48.524;9.040;2023-02-01T02:27:50;3.13;;;2.28;;
77864;SDS011;67061;48.524;9.040;2023-02-01T02:30:32;3.03;;;1.52;;
77864;SDS011;67061;48.524;9.040;2023-02-01T02:36:09;2.83;;;2.08;;
77864;SDS011;67061;48.524;9.040;2023-02-01T02:38:41;3.10;;;2.13;;
77864;SDS011;67061;48.524;9.040;2023-02-01T02:41:14;3.05;;;2.15;;
77864;SDS011;67061;48.524;9.040;2023-02-01T02:43:59;2.40;;;1.45;;
77864;SDS011;67061;48.524;9.040;2023-02-01T02:46:48;2.65;;;1.95;;
77864;SDS011;67061;48.524;9.040;2023-02-01T02:49:36;3.05;;;2.00;;
77864;SDS011;67061;48.524;9.040;2023-02-01T02:52:09;3.10;;;2.03;;
77864;SDS011;67061;48.524;9.040;2023-02-01T02:54:57;2.88;;;1.95;;
77864;SDS011;67061;48.524;9.040;2023-02-01T02:57:26;2.97;;;1.75;;
77864;SDS011;67061;48.524;9.040;2023-02-01T03:00:14;4.20;;;2.42;;
77864;SDS011;67061;48.524;9.040;2023-02-01T03:03:00;3.08;;;1.70;;
77864;SDS011;67061;48.524;9.040;2023-02-01T03:05:47;3.10;;;1.77;;
77864;SDS011;67061;48.524;9.040;2023-02-01T03:08:16;3.63;;;2.42;;
77864;SDS011;67061;48.524;9.040;2023-02-01T03:10:48;3.50;;;2.42;;
77864;SDS011;67061;48.524;9.040;2023-02-01T03:13:22;4.28;;;2.08;;
77864;SDS011;67061;48.524;9.040;2023-02-01T03:15:56;2.88;;;2.10;;
77864;SDS011;67061;48.524;9.040;2023-02-01T03:18:28;3.30;;;1.35;;
77864;SDS011;67061;48.524;9.040;2023-02-01T03:21:02;2.83;;;1.45;;
77864;SDS011;67061;48.524;9.040;2023-02-01T03:23:34;3.28;;;2.40;;
77864;SDS011;67061;48.524;9.040;2023-02-01T03:26:03;3.83;;;2.38;;
77864;SDS011;67061;48.524;9.040;2023-02-01T03:28:33;4.25;;;1.92;;
77864;SDS011;67061;48.524;9.040;2023-02-01T03:31:02;4.55;;;3.13;;
77864;SDS011;67061;48.524;9.040;2023-02-01T03:33:29;2.72;;;1.92;;
77864;SDS011;67061;48.524;9.040;2023-02-01T03:36:00;3.55;;;2.60;;
77864;SDS011;67061;48.524;9.040;2023-02-01T03:38:37;3.35;;;2.35;;
77864;SDS011;67061;48.524;9.040;2023-02-01T03:41:08;2.67;;;1.27;;
77864;SDS011;67061;48.524;9.040;2023-02-01T03:43:43;3.65;;;2.03;;
77864;SDS011;67061;48.524;9.040;2023-02-01T03:46:18;3.22;;;2.33;;
77864;SDS011;67061;48.524;9.040;2023-02-01T03:48:50;3.50;;;2.50;;
77864;SDS011;67061;48.524;9.040;2023-02-01T03:51:21;3.80;;;3.03;;
77864;SDS011;67061;48.524;9.040;2023-02-01T03:53:49;4.93;;;2.60;;
77864;SDS011;67061;48.524;9.040;2023-02-01T03:56:18;3.30;;;1.75;;
77864;SDS011;67061;48.524;9.040;2023-02-01T03:58:49;3.35;;;2.83;;
77864;SDS011;67061;48.524;9.040;2023-02-01T04:01:25;3.58;;;2.10;;
77864;SDS011;67061;48.524;9.040;2023-02-01T04:03:53;3.30;;;2.22;;
77864;SDS011;67061;48.524;9.040;2023-02-01T04:06:21;3.38;;;1.48;;
77864;SDS011;67061;48.524;9.040;2023-02-01T04:08:48;3.75;;;2.47;;
77864;SDS011;67061;48.524;9.040;2023-02-01T04:11:15;3.40;;;2.42;;
77864;SDS011;67061;48.524;9.040;2023-02-01T04:13:42;3.22;;;1.80;;
77864;SDS011;67061;48.524;9.040;2023-02-01T04:16:09;5.45;;;2.50;;
77864;SDS011;67061;48.524;9.040;2023-02-01T04:18:36;3.88;;;2.15;;
77864;SDS011;67061;48.524;9.040;2023-02-01T04:21:03;5.20;;;2.42;;
77864;SDS011;67061;48.524;9.040;2023-02-01T04:23:32;2.17;;;1.63;;
77864;SDS011;67061;48.524;9.040;2023-02-01T04:25:59;3.30;;;2.30;;
77864;SDS011;67061;48.524;9.040;2023-02-01T04:28:26;3.58;;;2.30;;
77864;SDS011;67061;48.524;9.040;2023-02-01T04:30:53;3.03;;;2.03;;
77864;SDS011;67061;48.524;9.040;2023-02-01T04:33:20;3.30;;;2.10;;
77864;SDS011;67061;48.524;9.040;2023-02-01T04:35:47;3.53;;;2.10;;
77864;SDS011;67061;48.524;9.040;2023-02-01T04:38:14;3.88;;;1.80;;
77864;SDS011;67061;48.524;9.040;2023-02-01T04:40:43;3.13;;;1.98;;
77864;SDS011;67061;48.524;9.040;2023-02-01T04:43:12;3.60;;;2.53;;
77864;SDS011;67061;48.524;9.040;2023-02-01T04:45:39;3.13;;;2.05;;
77864;SDS011;67061;48.524;9.040;2023-02-01T04:48:06;4.60;;;2.72;;
77864;SDS011;67061;48.524;9.040;2023-02-01T04:50:33;3.78;;;2.42;;
77864;SDS011;67061;48.524;9.040;2023-02-01T04:52:59;4.07;;;2.25;;
77864;SDS011;67061;48.524;9.040;2023-02-01T04:55:26;3.83;;;2.25;;
77864;SDS011;67061;48.524;9.040;2023-02-01T04:57:55;3.67;;;2.45;;
77864;SDS011;67061;48.524;9.040;2023-02-01T05:00:21;3.58;;;2.13;;
77864;SDS011;67061;48.524;9.040;2023-02-01T05:02:49;3.75;;;2.10;;
77864;SDS011;67061;48.524;9.040;2023-02-01T05:05:16;3.55;;;2.55;;
77864;SDS011;67061;48.524;9.040;2023-02-01T05:07:43;3.40;;;2.00;;
77864;SDS011;67061;48.524;9.040;2023-02-01T05:10:11;2.92;;;1.80;;
77864;SDS011;67061;48.524;9.040;2023-02-01T05:12:38;3.97;;;2.25;;
77864;SDS011;67061;48.524;9.040;2023-02-01T05:15:24;2.67;;;1.98;;
77864;SDS011;67061;48.524;9.040;2023-02-01T05:17:51;3.35;;;2.28;;
77864;SDS011;67061;48.524;9.040;2023-02-01T05:20:18;3.35;;;2.47;;
77864;SDS011;67061;48.524;9.040;2023-02-01T05:22:45;3.33;;;1.85;;
77864;SDS011;67061;48.524;9.040;2023-02-01T05:25:12;3.25;;;2.47;;
77864;SDS011;67061;48.524;9.040;2023-02-01T05:27:38;3.22;;;2.22;;
77864;SDS011;67061;48.524;9.040;2023-02-01T05:30:07;3.53;;;2.33;;
77864;SDS011;67061;48.524;9.040;2023-02-01T05:32:36;3.15;;;2.05;;
77864;SDS011;67061;48.524;9.040;2023-02-01T05:35:03;3.13;;;2.13;;
77864;SDS011;67061;48.524;9.040;2023-02-01T05:37:30;3.25;;;1.90;;
77864;SDS011;67061;48.524;9.040;2023-02-01T05:39:57;3.03;;;1.92;;
77864;SDS011;67061;48.524;9.040;2023-02-01T05:42:24;3.70;;;2.05;;
77864;SDS011;67061;48.524;9.040;2023-02-01T05:44:51;2.67;;;1.50;;
77864;SDS011;67061;48.524;9.040;2023-02-01T05:47:18;2.85;;;1.08;;
77864;SDS011;67061;48.524;9.040;2023-02-01T05:49:47;2.90;;;1.80;;
77864;SDS011;67061;48.524;9.040;2023-02-01T05:52:13;3.20;;;2.10;;
77864;SDS011;67061;48.524;9.040;2023-02-01T05:54:44;3.05;;;2.17;;
77864;SDS011;67061;48.524;9.040;2023-02-01T05:57:11;4.20;;;2.42;;
77864;SDS011;67061;48.524;9.040;2023-02-01T05:59:38;2.70;;;2.10;;
77864;SDS011;67061;48.524;9.040;2023-02-01T06:02:06;2.70;;;1.45;;
77864;SDS011;67061;48.524;9.040;2023-02-01T06:04:33;2.75;;;2.17;;
77864;SDS011;67061;48.524;9.040;2023-02-01T06:07:02;2.80;;;1.75;;
77864;SDS011;67061;48.524;9.040;2023-02-01T06:09:29;3.92;;;2.25;;
77864;SDS011;67061;48.524;9.040;2023-02-01T06:11:55;3.15;;;2.03;;
77864;SDS011;67061;48.524;9.040;2023-02-01T06:14:22;2.65;;;2.15;;
77864;SDS011;67061;48.524;9.040;2023-02-01T06:16:50;2.90;;;1.58;;
77864;SDS011;67061;48.524;9.040;2023-02-01T06:19:16;4.18;;;2.42;;
77864;SDS011;67061;48.524;9.040;2023-02-01T06:21:43;4.88;;;2.55;;
77864;SDS011;67061;48.524;9.040;2023-02-01T06:24:12;4.50;;;2.35;;
77864;SDS011;67061;48.524;9.040;2023-02-01T06:26:39;2.40;;;1.70;;
77864;SDS011;67061;48.524;9.040;2023-02-01T06:29:06;2.92;;;1.75;;
77864;SDS011;67061;48.524;9.040;2023-02-01T06:31:35;3.63;;;2.30;;
77864;SDS011;67061;48.524;9.040;2023-02-01T06:34:02;2.80;;;2.35;;
77864;SDS011;67061;48.524;9.040;2023-02-01T06:36:29;3.35;;;1.95;;
77864;SDS011;67061;48.524;9.040;2023-02-01T06:38:56;3.55;;;2.03;;
77864;SDS011;67061;48.524;9.040;2023-02-01T06:41:25;3.75;;;2.45;;
77864;SDS011;67061;48.524;9.040;2023-02-01T06:43:52;4.18;;;2.17;;
77864;SDS011;67061;48.524;9.040;2023-02-01T06:46:20;3.03;;;2.03;;
77864;SDS011;67061;48.524;9.040;2023-02-01T06:48:46;3.97;;;2.28;;
77864;SDS011;67061;48.524;9.040;2023-02-01T06:51:18;3.97;;;2.40;;
77864;SDS011;67061;48.524;9.040;2023-02-01T06:53:46;3.28;;;2.17;;
77864;SDS011;67061;48.524;9.040;2023-02-01T06:56:13;3.88;;;1.60;;
77864;SDS011;67061;48.524;9.040;2023-02-01T06:58:41;3.45;;;2.10;;
77864;SDS011;67061;48.524;9.040;2023-02-01T07:01:09;3.80;;;2.17;;
77864;SDS011;67061;48.524;9.040;2023-02-01T07:03:36;3.92;;;2.13;;
77864;SDS011;67061;48.524;9.040;2023-02-01T07:06:04;3.70;;;2.90;;
77864;SDS011;67061;48.524;9.040;2023-02-01T07:08:32;3.90;;;2.17;;
77864;SDS011;67061;48.524;9.040;2023-02-01T07:11:04;4.15;;;2.10;;
77864;SDS011;67061;48.524;9.040;2023-02-01T07:13:31;4.40;;;2.45;;
77864;SDS011;67061;48.524;9.040;2023-02-01T07:16:00;3.50;;;2.28;;
77864;SDS011;67061;48.524;9.040;2023-02-01T07:18:28;3.83;;;2.08;;
77864;SDS011;67061;48.524;9.040;2023-02-01T07:20:55;3.30;;;1.80;;
77864;SDS011;67061;48.524;9.040;2023-02-01T07:23:22;3.20;;;1.05;;
77864;SDS011;67061;48.524;9.040;2023-02-01T07:25:52;3.42;;;2.08;;
77864;SDS011;67061;48.524;9.040;2023-02-01T07:28:19;2.00;;;1.63;;
77864;SDS011;67061;48.524;9.040;2023-02-01T07:30:46;3.20;;;1.90;;
77864;SDS011;67061;48.524;9.040;2023-02-01T07:33:17;4.60;;;2.13;;
77864;SDS011;67061;48.524;9.040;2023-02-01T07:35:44;3.83;;;2.08;;
77864;SDS011;67061;48.524;9.040;2023-02-01T07:38:11;3.45;;;2.13;;
77864;SDS011;67061;48.524;9.040;2023-02-01T07:40:38;4.93;;;2.55;;
77864;SDS011;67061;48.524;9.040;2023-02-01T07:43:05;2.80;;;1.83;;
77864;SDS011;67061;48.524;9.040;2023-02-01T07:45:33;3.85;;;2.28;;
77864;SDS011;67061;48.524;9.040;2023-02-01T07:48:00;4.40;;;2.75;;
77864;SDS011;67061;48.524;9.040;2023-02-01T07:50:29;3.17;;;1.70;;
77864;SDS011;67061;48.524;9.040;2023-02-01T07:52:57;4.65;;;2.55;;
77864;SDS011;67061;48.524;9.040;2023-02-01T07:55:25;2.83;;;1.95;;
77864;SDS011;67061;48.524;9.040;2023-02-01T07:57:51;5.30;;;1.88;;
77864;SDS011;67061;48.524;9.040;2023-02-01T08:00:19;2.88;;;1.48;;
77864;SDS011;67061;48.524;9.040;2023-02-01T08:03:03;3.17;;;1.80;;
77864;SDS011;67061;48.524;9.040;2023-02-01T08:05:32;2.58;;;1.75;;
77864;SDS011;67061;48.524;9.040;2023-02-01T08:07:59;4.00;;;2.33;;
77864;SDS011;67061;48.524;9.040;2023-02-01T08:10:26;3.47;;;2.30;;
77864;SDS011;67061;48.524;9.040;2023-02-01T08:12:57;3.33;;;1.85;;
77864;SDS011;67061;48.524;9.040;2023-02-01T08:15:24;3.08;;;2.13;;
77864;SDS011;67061;48.524;9.040;2023-02-01T08:17:51;3.17;;;2.50;;
77864;SDS011;67061;48.524;9.040;2023-02-01T08:20:19;3.85;;;2.03;;
77864;SDS011;67061;48.524;9.040;2023-02-01T08:22:49;3.13;;;1.42;;
77864;SDS011;67061;48.524;9.040;2023-02-01T08:25:16;3.33;;;1.23;;
77864;SDS011;67061;48.524;9.040;2023-02-01T08:27:43;2.80;;;1.95;;
77864;SDS011;67061;48.524;9.040;2023-02-01T08:30:11;3.00;;;2.00;;
77864;SDS011;67061;48.524;9.040;2023-02-01T08:32:38;3.85;;;1.83;;
77864;SDS011;67061;48.524;9.040;2023-02-01T08:35:06;3.80;;;2.47;;
77864;SDS011;67061;48.524;9.040;2023-02-01T08:37:33;3.78;;;2.67;;
77864;SDS011;67061;48.524;9.040;2023-02-01T08:40:01;2.78;;;1.88;;
77864;SDS011;67061;48.524;9.040;2023-02-01T08:42:29;2.95;;;2.05;;
77864;SDS011;67061;48.524;9.040;2023-02-01T08:45:13;3.13;;;2.28;;
77864;SDS011;67061;48.524;9.040;2023-02-01T08:47:40;3.13;;;2.30;;
77864;SDS011;67061;48.524;9.040;2023-02-01T08:50:08;2.00;;;1.33;;
77864;SDS011;67061;48.524;9.040;2023-02-01T08:52:35;3.10;;;2.25;;
77864;SDS011;67061;48.524;9.040;2023-02-01T08:55:04;4.82;;;2.42;;
77864;SDS011;67061;48.524;9.040;2023-02-01T08:57:32;3.50;;;2.20;;
77864;SDS011;67061;48.524;9.040;2023-02-01T08:59:59;5.47;;;2.42;;
77864;SDS011;67061;48.524;9.040;2023-02-01T09:02:26;4.30;;;1.63;;
77864;SDS011;67061;48.524;9.040;2023-02-01T09:04:53;3.30;;;1.60;;
77864;SDS011;67061;48.524;9.040;2023-02-01T09:07:21;4.45;;;1.92;;
77864;SDS011;67061;48.524;9.040;2023-02-01T09:09:48;3.45;;;1.92;;
77864;SDS011;67061;48.524;9.040;2023-02-01T09:12:16;4.28;;;2.10;;
77864;SDS011;67061;48.524;9.040;2023-02-01T09:14:43;3.95;;;1.88;;
77864;SDS011;67061;48.524;9.040;2023-02-01T09:17:10;4.40;;;1.90;;
77864;SDS011;67061;48.524;9.040;2023-02-01T09:19:38;6.57;;;2.72;;
77864;SDS011;67061;48.524;9.040;2023-02-01T09:22:05;2.80;;;2.10;;
77864;SDS011;67061;48.524;9.040;2023-02-01T09:24:32;3.15;;;2.42;;
77864;SDS011;67061;48.524;9.040;2023-02-01T09:26:59;2.90;;;1.60;;
77864;SDS011;67061;48.524;9.040;2023-02-01T09:29:27;5.00;;;2.30;;
77864;SDS011;67061;48.524;9.040;2023-02-01T09:31:54;4.50;;;2.25;;
77864;SDS011;67061;48.524;9.040;2023-02-01T09:34:21;2.97;;;1.70;;
77864;SDS011;67061;48.524;9.040;2023-02-01T09:36:48;4.78;;;2.58;;
77864;SDS011;67061;48.524;9.040;2023-02-01T09:39:15;5.10;;;1.85;;
77864;SDS011;67061;48.524;9.040;2023-02-01T09:41:45;3.45;;;1.95;;
77864;SDS011;67061;48.524;9.040;2023-02-01T09:47:16;4.30;;;2.58;;
77864;SDS011;67061;48.524;9.040;2023-02-01T09:49:48;4.70;;;2.15;;
77864;SDS011;67061;48.524;9.040;2023-02-01T09:52:23;2.92;;;2.03;;
77864;SDS011;67061;48.524;9.040;2023-02-01T09:54:56;3.40;;;2.58;;
77864;SDS011;67061;48.524;9.040;2023-02-01T09:57:28;5.35;;;2.03;;
77864;SDS011;67061;48.524;9.040;2023-02-01T10:00:12;5.90;;;2.60;;
77864;SDS011;67061;48.524;9.040;2023-02-01T10:02:44;4.70;;;2.15;;
77864;SDS011;67061;48.524;9.040;2023-02-01T10:05:12;5.15;;;3.33;;
77864;SDS011;67061;48.524;9.040;2023-02-01T10:07:43;5.43;;;2.25;;
77864;SDS011;67061;48.524;9.040;2023-02-01T10:10:18;5.72;;;2.33;;
77864;SDS011;67061;48.524;9.040;2023-02-01T10:13:01;5.78;;;1.77;;
77864;SDS011;67061;48.524;9.040;2023-02-01T10:15:52;5.05;;;1.92;;
77864;SDS011;67061;48.524;9.040;2023-02-01T10:18:29;4.95;;;2.35;;
77864;SDS011;67061;48.524;9.040;2023-02-01T10:21:08;3.63;;;2.10;;
77864;SDS011;67061;48.524;9.040;2023-02-01T10:26:39;5.68;;;2.30;;
77864;SDS011;67061;48.524;9.040;2023-02-01T10:29:13;7.00;;;2.90;;
77864;SDS011;67061;48.524;9.040;2023-02-01T10:31:44;6.43;;;2.47;;
77864;SDS011;67061;48.524;9.040;2023-02-01T10:34:14;7.38;;;2.10;;
77864;SDS011;67061;48.524;9.040;2023-02-01T10:36:49;4.97;;;2.00;;
77864;SDS011;67061;48.524;9.040;2023-02-01T10:39:20;4.32;;;2.15;;
77864;SDS011;67061;48.524;9.040;2023-02-01T10:41:47;6.40;;;2.65;;
77864;SDS011;67061;48.524;9.040;2023-02-01T10:44:15;4.47;;;2.30;;
77864;SDS011;67061;48.524;9.040;2023-02-01T10:46:48;5.85;;;2.00;;
77864;SDS011;67061;48.524;9.040;2023-02-01T10:49:17;6.32;;;2.25;;
77864;SDS011;67061;48.524;9.040;2023-02-01T10:51:48;4.10;;;1.83;;
77864;SDS011;67061;48.524;9.040;2023-02-01T10:54:21;7.30;;;2.92;;
77864;SDS011;67061;48.524;9.040;2023-02-01T10:56:57;6.88;;;2.30;;
77864;SDS011;67061;48.524;9.040;2023-02-01T10:59:24;5.80;;;2.55;;
77864;SDS011;67061;48.524;9.040;2023-02-01T11:01:59;5.18;;;2.42;;
77864;SDS011;67061;48.524;9.040;2023-02-01T11:04:28;7.75;;;2.38;;
77864;SDS011;67061;48.524;9.040;2023-02-01T11:07:04;4.88;;;2.03;;
77864;SDS011;67061;48.524;9.040;2023-02-01T11:09:33;5.05;;;2.40;;
77864;SDS011;67061;48.524;9.040;2023-02-01T11:12:04;4.18;;;2.35;;
77864;SDS011;67061;48.524;9.040;2023-02-01T11:14:46;3.47;;;1.70;;
77864;SDS011;67061;48.524;9.040;2023-02-01T11:17:24;5.85;;;2.15;;
77864;SDS011;67061;48.524;9.040;2023-02-01T11:19:57;4.13;;;2.33;;
77864;SDS011;67061;48.524;9.040;2023-02-01T11:22:25;4.55;;;2.10;;
77864;SDS011;67061;48.524;9.040;2023-02-01T11:24:54;3.97;;;1.45;;
77864;SDS011;67061;48.524;9.040;2023-02-01T11:27:22;6.53;;;2.05;;
77864;SDS011;67061;48.524;9.040;2023-02-01T11:29:51;6.60;;;1.90;;
77864;SDS011;67061;48.524;9.040;2023-02-01T11:32:22;3.90;;;1.98;;
77864;SDS011;67061;48.524;9.040;2023-02-01T11:34:51;3.63;;;1.88;;
77864;SDS011;67061;48.524;9.040;2023-02-01T11:37:22;4.32;;;1.80;;
77864;SDS011;67061;48.524;9.040;2023-02-01T11:39:53;5.88;;;2.00;;
77864;SDS011;67061;48.524;9.040;2023-02-01T11:42:21;5.28;;;1.63;;
77864;SDS011;67061;48.524;9.040;2023-02-01T11:44:49;5.40;;;2.15;;
77864;SDS011;67061;48.524;9.040;2023-02-01T11:47:20;3.88;;;2.67;;
77864;SDS011;67061;48.524;9.040;2023-02-01T11:49:53;8.98;;;2.63;;
77864;SDS011;67061;48.524;9.040;2023-02-01T11:52:26;7.35;;;2.22;;
77864;SDS011;67061;48.524;9.040;2023-02-01T11:55:21;14.95;;;1.85;;
77864;SDS011;67061;48.524;9.040;2023-02-01T11:58:18;8.82;;;2.53;;
77864;SDS011;67061;48.524;9.040;2023-02-01T12:01:01;4.45;;;2.40;;
77864;SDS011;67061;48.524;9.040;2023-02-01T12:03:51;7.90;;;2.30;;
77864;SDS011;67061;48.524;9.040;2023-02-01T12:06:31;4.70;;;1.75;;
77864;SDS011;67061;48.524;9.040;2023-02-01T12:09:15;5.60;;;1.65;;
77864;SDS011;67061;48.524;9.040;2023-02-01T12:11:53;4.63;;;1.95;;
77864;SDS011;67061;48.524;9.040;2023-02-01T12:14:32;5.72;;;1.88;;
77864;SDS011;67061;48.524;9.040;2023-02-01T12:17:21;5.40;;;2.20;;
77864;SDS011;67061;48.524;9.040;2023-02-01T12:20:18;4.50;;;2.03;;
77864;SDS011;67061;48.524;9.040;2023-02-01T12:23:01;6.15;;;2.10;;
77864;SDS011;67061;48.524;9.040;2023-02-01T12:25:40;6.13;;;2.22;;
77864;SDS011;67061;48.524;9.040;2023-02-01T12:31:20;5.38;;;2.20;;
77864;SDS011;67061;48.524;9.040;2023-02-01T12:34:01;5.03;;;1.42;;
77864;SDS011;67061;48.524;9.040;2023-02-01T12:36:44;5.65;;;2.30;;
77864;SDS011;67061;48.524;9.040;2023-02-01T12:39:19;4.03;;;1.70;;
77864;SDS011;67061;48.524;9.040;2023-02-01T12:41:53;5.20;;;1.30;;
77864;SDS011;67061;48.524;9.040;2023-02-01T12:44:40;5.18;;;1.83;;
77864;SDS011;67061;48.524;9.040;2023-02-01T12:47:12;5.32;;;1.02;;
77864;SDS011;67061;48.524;9.040;2023-02-01T12:49:48;5.50;;;1.75;;
77864;SDS011;67061;48.524;9.040;2023-02-01T12:52:21;6.18;;;1.95;;
77864;SDS011;67061;48.524;9.040;2023-02-01T12:55:00;5.20;;;1.88;;
77864;SDS011;67061;48.524;9.040;2023-02-01T12:57:33;6.43;;;2.25;;
77864;SDS011;67061;48.524;9.040;2023-02-01T13:00:06;5.50;;;1.88;;
77864;SDS011;67061;48.524;9.040;2023-02-01T13:02:48;5.88;;;2.28;;
77864;SDS011;67061;48.524;9.040;2023-02-01T13:05:19;5.00;;;1.98;;
77864;SDS011;67061;48.524;9.040;2023-02-01T13:07:51;7.15;;;2.33;;
77864;SDS011;67061;48.524;9.040;2023-02-01T13:10:24;10.07;;;2.40;;
77864;SDS011;67061;48.524;9.040;2023-02-01T13:12:59;4.55;;;2.20;;
77864;SDS011;67061;48.524;9.040;2023-02-01T13:15:36;7.45;;;2.45;;
77864;SDS011;67061;48.524;9.040;2023-02-01T13:18:09;7.95;;;1.88;;
77864;SDS011;67061;48.524;9.040;2023-02-01T13:20:42;8.38;;;2.15;;
77864;SDS011;67061;48.524;9.040;2023-02-01T13:23:18;7.60;;;2.28;;
77864;SDS011;67061;48.524;9.040;2023-02-01T13:25:51;6.20;;;2.17;;
77864;SDS011;67061;48.524;9.040;2023-02-01T13:28:21;8.20;;;4.95;;
77864;SDS011;67061;48.524;9.040;2023-02-01T13:33:59;7.13;;;2.17;;
77864;SDS011;67061;48.524;9.040;2023-02-01T13:36:43;5.45;;;2.70;;
77864;SDS011;67061;48.524;9.040;2023-02-01T13:39:34;6.00;;;2.75;;
77864;SDS011;67061;48.524;9.040;2023-02-01T13:42:13;10.50;;;1.67;;
77864;SDS011;67061;48.524;9.040;2023-02-01T13:44:45;6.05;;;2.00;;
77864;SDS011;67061;48.524;9.040;2023-02-01T13:47:25;5.70;;;1.92;;
77864;SDS011;67061;48.524;9.040;2023-02-01T13:49:56;8.40;;;2.30;;
77864;SDS011;67061;48.524;9.040;2023-02-01T13:52:31;11.73;;;3.13;;
77864;SDS011;67061;48.524;9.040;2023-02-01T13:58:00;8.85;;;2.75;;
77864;SDS011;67061;48.524;9.040;2023-02-01T14:00:46;9.93;;;1.90;;
77864;SDS011;67061;48.524;9.040;2023-02-01T14:03:16;7.38;;;2.50;;
77864;SDS011;67061;48.524;9.040;2023-02-01T14:06:01;5.32;;;1.98;;
77864;SDS011;67061;48.524;9.040;2023-02-01T14:08:44;6.25;;;2.30;;
77864;SDS011;67061;48.524;9.040;2023-02-01T14:11:40;5.15;;;1.60;;
77864;SDS011;67061;48.524;9.040;2023-02-01T14:23:23;7.93;;;2.13;;
77864;SDS011;67061;48.524;9.040;2023-02-01T14:26:03;8.50;;;2.55;;
77864;SDS011;67061;48.524;9.040;2023-02-01T14:28:34;4.38;;;2.53;;
77864;SDS011;67061;48.524;9.040;2023-02-01T14:31:13;6.05;;;1.98;;
77864;SDS011;67061;48.524;9.040;2023-02-01T14:33:43;5.57;;;2.40;;
77864;SDS011;67061;48.524;9.040;2023-02-01T14:36:11;6.38;;;2.00;;
77864;SDS011;67061;48.524;9.040;2023-02-01T14:38:39;6.90;;;2.15;;
77864;SDS011;67061;48.524;9.040;2023-02-01T14:41:25;7.38;;;2.70;;
77864;SDS011;67061;48.524;9.040;2023-02-01T14:44:23;4.32;;;2.05;;
77864;SDS011;67061;48.524;9.040;2023-02-01T14:47:02;6.47;;;1.98;;
77864;SDS011;67061;48.524;9.040;2023-02-01T14:49:59;8.35;;;2.22;;
77864;SDS011;67061;48.524;9.040;2023-02-01T14:52:44;8.35;;;2.47;;
77864;SDS011;67061;48.524;9.040;2023-02-01T14:55:14;9.05;;;3.47;;
77864;SDS011;67061;48.524;9.040;2023-02-01T14:57:46;7.07;;;2.90;;
77864;SDS011;67061;48.524;9.040;2023-02-01T15:00:22;6.50;;;2.67;;
77864;SDS011;67061;48.524;9.040;2023-02-01T15:02:51;7.05;;;2.40;;
77864;SDS011;67061;48.524;9.040;2023-02-01T15:05:21;5.68;;;2.40;;
77864;SDS011;67061;48.524;9.040;2023-02-01T15:07:51;7.53;;;2.63;;
77864;SDS011;67061;48.524;9.040;2023-02-01T15:10:19;4.53;;;1.98;;
77864;SDS011;67061;48.524;9.040;2023-02-01T15:12:47;7.35;;;2.60;;
77864;SDS011;67061;48.524;9.040;2023-02-01T15:15:16;5.50;;;1.85;;
77864;SDS011;67061;48.524;9.040;2023-02-01T15:17:53;7.10;;;2.22;;
77864;SDS011;67061;48.524;9.040;2023-02-01T15:20:22;7.38;;;2.33;;
77864;SDS011;67061;48.524;9.040;2023-02-01T15:22:54;10.18;;;2.97;;
77864;SDS011;67061;48.524;9.040;2023-02-01T15:25:23;5.38;;;1.85;;
77864;SDS011;67061;48.524;9.040;2023-02-01T15:27:52;6.93;;;3.17;;
77864;SDS011;67061;48.524;9.040;2023-02-01T15:30:20;9.07;;;2.20;;
77864;SDS011;67061;48.524;9.040;2023-02-01T15:32:48;7.60;;;2.33;;
77864;SDS011;67061;48.524;9.040;2023-02-01T15:35:33;11.65;;;2.78;;
77864;SDS011;67061;48.524;9.040;2023-02-01T15:41:03;6.53;;;1.88;;
77864;SDS011;67061;48.524;9.040;2023-02-01T15:43:37;6.63;;;2.80;;
77864;SDS011;67061;48.524;9.040;2023-02-01T15:46:08;8.55;;;2.75;;
77864;SDS011;67061;48.524;9.040;2023-02-01T15:48:45;7.70;;;2.80;;
77864;SDS011;67061;48.524;9.040;2023-02-01T15:51:16;6.60;;;2.22;;